createdAt,value
2018-07-21T00:00:57.302Z,101183.09
2018-07-21T00:03:26.375Z,101177.09
2018-07-21T00:06:01.108Z,101179.03
2018-07-21T00:08:30.204Z,101181.86
2018-07-21T00:10:59.292Z,101179.70
2018-07-21T00:13:30.261Z,101185.75
2018-07-21T00:15:59.334Z,101177.62
2018-07-21T00:18:28.460Z,101175.69
2018-07-21T00:20:57.529Z,101182.82
2018-07-21T00:23:26.634Z,101182.82
2018-07-21T00:25:55.712Z,101183.41
2018-07-21T00:28:24.789Z,101182.36
2018-07-21T00:30:54.033Z,101184.58
2018-07-21T00:33:23.104Z,101172.22
2018-07-21T00:35:52.240Z,101168.70
2018-07-21T00:38:21.321Z,101170.28
2018-07-21T00:40:50.523Z,101169.69
2018-07-21T00:43:19.627Z,101174.06
2018-07-21T00:45:48.748Z,101167.17
2018-07-21T00:48:17.896Z,101163.47
2018-07-21T00:50:46.978Z,101159.55
2018-07-21T00:53:16.088Z,101163.83
2018-07-21T00:55:45.224Z,101153.02
2018-07-21T00:58:14.476Z,101152.07
2018-07-21T01:00:43.898Z,101165.59
2018-07-21T01:03:13.678Z,101160.40
2018-07-21T01:05:42.802Z,101158.01
2018-07-21T01:08:11.980Z,101155.44
2018-07-21T01:10:41.107Z,101154.94
2018-07-21T01:13:10.756Z,101155.21
2018-07-21T01:15:39.905Z,101151.92
2018-07-21T01:18:09.584Z,101152.78
2018-07-21T01:20:38.701Z,101151.38
2018-07-21T01:23:07.800Z,101154.57
2018-07-21T01:25:36.885Z,101154.94
2018-07-21T01:28:06.001Z,101157.55
2018-07-21T01:30:35.294Z,101162.56
2018-07-21T01:33:04.409Z,101156.30
2018-07-21T01:35:33.670Z,101165.26
2018-07-21T01:38:02.750Z,101167.59
2018-07-21T01:40:31.867Z,101167.97
2018-07-21T01:43:00.961Z,101155.74
2018-07-21T01:45:30.046Z,101160.56
2018-07-21T01:47:59.346Z,101155.92
2018-07-21T01:50:28.735Z,101150.34
2018-07-21T01:52:57.890Z,101157.77
2018-07-21T01:55:26.964Z,101153.05
2018-07-21T01:57:56.051Z,101153.05
2018-07-21T02:00:25.139Z,101146.87
2018-07-21T02:02:54.262Z,101146.23
2018-07-21T02:05:23.265Z,101141.73
2018-07-21T02:07:52.411Z,101145.70
2018-07-21T02:10:21.514Z,101145.15
2018-07-21T02:12:50.619Z,101138.12
2018-07-21T02:15:19.920Z,101136.91
2018-07-21T02:17:48.992Z,101136.82
2018-07-21T02:20:18.083Z,101134.92
2018-07-21T02:22:47.177Z,101140.88
2018-07-21T02:25:16.378Z,101132.41
2018-07-21T02:27:45.506Z,101129.70
2018-07-21T02:30:14.657Z,101130.28
2018-07-21T02:32:43.753Z,101122.55
2018-07-21T02:35:12.838Z,101123.89
2018-07-21T02:37:41.991Z,101116.06
2018-07-21T02:40:11.117Z,101114.16
2018-07-21T02:42:40.192Z,101114.71
2018-07-21T02:45:09.276Z,101114.84
2018-07-21T02:47:38.411Z,101120.12
2018-07-21T02:50:07.568Z,101117.72
2018-07-21T02:52:37.029Z,101110.16
2018-07-21T02:55:06.136Z,101113.80
2018-07-21T02:57:35.269Z,101109.73
2018-07-21T03:00:04.882Z,101111.64
2018-07-21T03:02:33.964Z,101113.95
2018-07-21T03:05:03.120Z,101111.24
2018-07-21T03:07:32.192Z,101106.06
2018-07-21T03:10:01.378Z,101112.66
2018-07-21T03:12:30.596Z,101108.98
2018-07-21T03:14:59.745Z,101112.81
2018-07-21T03:17:29.465Z,101118.44
2018-07-21T03:19:58.559Z,101105.45
2018-07-21T03:22:27.652Z,101104.59
2018-07-21T03:24:56.753Z,101099.65
2018-07-21T03:27:25.830Z,101099.56
2018-07-21T03:29:54.936Z,101091.45
2018-07-21T03:32:24.037Z,101086.05
2018-07-21T03:34:53.168Z,101086.14
2018-07-21T03:37:22.348Z,101084.70
2018-07-21T03:39:51.652Z,101087.31
2018-07-21T03:42:22.082Z,101090.65
2018-07-21T03:44:51.172Z,101090.65
2018-07-21T03:47:20.282Z,101092.77
2018-07-21T03:49:49.392Z,101082.32
2018-07-21T03:52:18.500Z,101087.14
2018-07-21T03:54:47.583Z,101082.50
2018-07-21T03:57:17.708Z,101080.78
2018-07-21T03:59:46.862Z,101075.66
2018-07-21T04:02:16.498Z,101077.37
2018-07-21T04:04:46.546Z,101075.46
2018-07-21T04:07:15.688Z,101076.32
2018-07-21T04:09:44.796Z,101081.14
2018-07-21T04:12:13.971Z,101084.20
2018-07-21T04:14:43.172Z,101084.48
2018-07-21T04:17:17.439Z,101084.75
2018-07-21T04:19:46.507Z,101089.79
2018-07-21T04:22:15.650Z,101092.50
2018-07-21T04:24:44.744Z,101095.69
2018-07-21T04:27:13.890Z,101096.91
2018-07-21T04:29:42.982Z,101095.20
2018-07-21T04:32:12.156Z,101092.27
2018-07-21T04:34:41.527Z,101095.47
2018-07-21T04:37:10.675Z,101092.17
2018-07-21T04:39:39.910Z,101092.17
2018-07-21T04:42:09.135Z,101095.65
2018-07-21T04:44:38.571Z,101093.31
2018-07-21T04:47:07.868Z,101094.66
2018-07-21T04:49:38.119Z,101091.47
2018-07-21T04:52:07.794Z,101097.64
2018-07-21T04:54:36.887Z,101102.55
2018-07-21T04:57:06.354Z,101103.53
2018-07-21T04:59:35.484Z,101106.11
2018-07-21T05:02:04.592Z,101110.93
2018-07-21T05:04:33.689Z,101104.76
2018-07-21T05:07:02.773Z,101114.03
2018-07-21T05:09:31.863Z,101113.14
2018-07-21T05:12:00.955Z,101127.05
2018-07-21T05:14:32.070Z,101128.77
2018-07-21T05:17:01.241Z,101126.47
2018-07-21T05:19:31.059Z,101130.03
2018-07-21T05:22:00.225Z,101135.34
2018-07-21T05:24:29.343Z,101133.01
2018-07-21T05:26:59.726Z,101137.16
2018-07-21T05:29:28.853Z,101134.85
2018-07-21T05:31:57.937Z,101139.28
2018-07-21T05:34:27.051Z,101141.98
2018-07-21T05:36:56.158Z,101144.09
2018-07-21T05:39:25.250Z,101143.11
2018-07-21T05:41:54.447Z,101142.65
2018-07-21T05:44:23.515Z,101149.50
2018-07-21T05:46:52.603Z,101148.91
2018-07-21T05:49:21.693Z,101147.93
2018-07-21T05:51:50.858Z,101147.07
2018-07-21T05:54:19.937Z,101145.63
2018-07-21T05:56:49.019Z,101151.03
2018-07-21T05:59:18.105Z,101149.68
2018-07-21T06:01:47.199Z,101151.89
2018-07-21T06:04:16.293Z,101147.70
2018-07-21T06:06:45.425Z,101143.56
2018-07-21T06:09:14.609Z,101146.26
2018-07-21T06:11:43.685Z,101141.71
2018-07-21T06:14:12.777Z,101147.12
2018-07-21T06:16:41.875Z,101145.77
2018-07-21T06:19:10.964Z,101144.81
2018-07-21T06:21:40.149Z,101146.53
2018-07-21T06:24:09.238Z,101148.25
2018-07-21T06:26:38.391Z,101152.61
2018-07-21T06:29:07.472Z,101153.06
2018-07-21T06:31:36.633Z,101150.77
2018-07-21T06:34:06.023Z,101151.63
2018-07-21T06:36:35.108Z,101156.54
2018-07-21T06:39:06.204Z,101154.96
2018-07-21T06:41:35.312Z,101148.59
2018-07-21T06:44:04.499Z,101154.77
2018-07-21T06:46:33.569Z,101156.39
2018-07-21T06:49:02.700Z,101156.66
2018-07-21T06:51:31.805Z,101157.88
2018-07-21T06:54:00.883Z,101166.27
2018-07-21T06:56:30.081Z,101155.72
2018-07-21T06:58:59.214Z,101164.10
2018-07-21T07:01:28.452Z,101163.95
2018-07-21T07:03:57.523Z,101160.61
2018-07-21T07:06:26.650Z,101168.14
2018-07-21T07:08:55.743Z,101168.05
2018-07-21T07:11:24.853Z,101169.27
2018-07-21T07:13:53.952Z,101169.53
2018-07-21T07:16:23.058Z,101172.51
2018-07-21T07:18:52.374Z,101166.90
2018-07-21T07:21:21.463Z,101171.33
2018-07-21T07:23:50.571Z,101173.08
2018-07-21T07:26:19.707Z,101173.34
2018-07-21T07:28:48.821Z,101184.03
2018-07-21T07:31:17.959Z,101191.93
2018-07-21T07:33:47.039Z,101177.94
2018-07-21T07:36:16.131Z,101176.45
2018-07-21T07:38:45.302Z,101180.19
2018-07-21T07:41:15.027Z,101175.70
2018-07-21T07:43:44.196Z,101173.52
2018-07-21T07:46:13.280Z,101178.70
2018-07-21T07:48:42.396Z,101187.72
2018-07-21T07:51:11.461Z,101191.19
2018-07-21T07:53:40.613Z,101193.56
2018-07-21T07:56:09.669Z,101189.66
2018-07-21T07:58:38.782Z,101184.41
2018-07-21T08:01:07.905Z,101189.23
2018-07-21T08:03:37.164Z,101177.04
2018-07-21T08:06:06.299Z,101178.30
2018-07-21T08:08:35.375Z,101187.14
2018-07-21T08:11:04.456Z,101186.18
2018-07-21T08:13:33.541Z,101176.56
2018-07-21T08:16:02.662Z,101169.45
2018-07-21T08:18:31.792Z,101180.35
2018-07-21T08:21:00.963Z,101174.70
2018-07-21T08:23:30.156Z,101172.11
2018-07-21T08:25:59.302Z,101170.66
2018-07-21T08:28:28.400Z,101170.16
2018-07-21T08:30:57.541Z,101171.52
2018-07-21T08:33:26.611Z,101167.09
2018-07-21T08:35:55.728Z,101167.45
2018-07-21T08:38:24.823Z,101159.81
2018-07-21T08:40:53.932Z,101160.67
2018-07-21T08:43:23.251Z,101158.36
2018-07-21T08:45:52.339Z,101162.88
2018-07-21T08:48:21.904Z,101153.90
2018-07-21T08:50:51.008Z,101156.61
2018-07-21T08:53:20.119Z,101167.34
2018-07-21T08:55:49.402Z,101166.84
2018-07-21T08:58:18.541Z,101166.09
2018-07-21T09:00:47.639Z,101160.17
2018-07-21T09:03:16.710Z,101163.77
2018-07-21T09:05:45.868Z,101162.78
2018-07-21T09:08:15.160Z,101161.06
2018-07-21T09:10:44.358Z,101159.71
2018-07-21T09:13:13.458Z,101163.88
2018-07-21T09:15:43.026Z,101158.95
2018-07-21T09:18:12.319Z,101160.31
2018-07-21T09:20:41.436Z,101154.89
2018-07-21T09:23:10.669Z,101163.88
2018-07-21T09:25:39.746Z,101153.14
2018-07-21T09:28:08.931Z,101155.48
2018-07-21T09:30:38.198Z,101168.55
2018-07-21T09:33:07.280Z,101159.30
2018-07-21T09:35:36.388Z,101162.50
2018-07-21T09:38:05.584Z,101159.89
2018-07-21T09:40:34.700Z,101166.80
2018-07-21T09:43:04.791Z,101162.24
2018-07-21T09:45:34.072Z,101160.75
2018-07-21T09:48:03.325Z,101165.45
2018-07-21T09:50:32.503Z,101152.87
2018-07-21T09:53:01.552Z,101153.86
2018-07-21T09:55:30.825Z,101164.70
2018-07-21T09:58:00.206Z,101155.81
2018-07-21T10:00:36.128Z,101163.08
2018-07-21T10:03:05.258Z,101170.35
2018-07-21T10:05:34.348Z,101171.80
2018-07-21T10:08:03.655Z,101178.68
2018-07-21T10:10:32.744Z,101176.86
2018-07-21T10:13:01.856Z,101179.94
2018-07-21T10:15:31.093Z,101171.31
2018-07-21T10:18:00.152Z,101186.44
2018-07-21T10:20:29.327Z,101179.52
2018-07-21T10:22:58.620Z,101192.45
2018-07-21T10:25:33.081Z,101190.61
2018-07-21T10:28:07.522Z,101192.09
2018-07-21T10:30:36.981Z,101191.70
2018-07-21T10:33:06.211Z,101203.03
2018-07-21T10:35:35.688Z,101204.48
2018-07-21T10:38:04.873Z,101197.72
2018-07-21T10:40:35.434Z,101199.47
2018-07-21T10:43:04.546Z,101199.07
2018-07-21T10:45:33.612Z,101198.34
2018-07-21T10:48:02.729Z,101196.70
2018-07-21T10:50:31.891Z,101199.70
2018-07-21T10:53:00.989Z,101195.64
2018-07-21T10:55:30.399Z,101205.98
2018-07-21T10:57:59.742Z,101200.16
2018-07-21T11:00:28.853Z,101197.45
2018-07-21T11:02:57.935Z,101196.59
2018-07-21T11:05:27.916Z,101203.56
2018-07-21T11:07:57.100Z,101199.30
2018-07-21T11:10:26.544Z,101193.48
2018-07-21T11:12:55.684Z,101205.78
2018-07-21T11:15:24.861Z,101205.12
2018-07-21T11:17:54.112Z,101210.53
2018-07-21T11:20:23.397Z,101200.27
2018-07-21T11:22:52.492Z,101198.41
2018-07-21T11:25:21.550Z,101204.33
2018-07-21T11:27:50.693Z,101198.91
2018-07-21T11:30:19.766Z,101200.66
2018-07-21T11:32:48.840Z,101201.12
2018-07-21T11:35:17.975Z,101195.80
2018-07-21T11:37:47.227Z,101195.44
2018-07-21T11:40:16.306Z,101195.94
2018-07-21T11:42:45.421Z,101201.61
2018-07-21T11:45:14.528Z,101201.35
2018-07-21T11:47:43.648Z,101204.72
2018-07-21T11:50:12.742Z,101202.11
2018-07-21T11:52:42.496Z,101205.41
2018-07-21T11:55:11.658Z,101210.83
2018-07-21T11:57:40.737Z,101209.34
2018-07-21T12:00:09.851Z,101197.06
2018-07-21T12:02:38.932Z,101202.11
2018-07-21T12:05:08.045Z,101205.78
2018-07-21T12:07:37.319Z,101205.67
2018-07-21T12:10:07.590Z,101204.55
2018-07-21T12:12:36.868Z,101199.00
2018-07-21T12:15:06.035Z,101205.41
2018-07-21T12:17:35.151Z,101209.48
2018-07-21T12:20:04.227Z,101200.86
2018-07-21T12:22:33.316Z,101211.69
2018-07-21T12:25:02.392Z,101212.05
2018-07-21T12:27:31.574Z,101207.69
2018-07-21T12:30:01.409Z,101216.41
2018-07-21T12:32:30.490Z,101202.97
2018-07-21T12:34:59.565Z,101205.18
2018-07-21T12:37:28.672Z,101220.02
2018-07-21T12:39:57.804Z,101209.05
2018-07-21T12:42:26.869Z,101215.81
2018-07-21T12:44:56.061Z,101225.30
2018-07-21T12:47:25.244Z,101223.34
2018-07-21T12:49:54.326Z,101225.69
2018-07-21T12:52:23.425Z,101222.98
2018-07-21T12:54:52.632Z,101222.98
2018-07-21T12:57:21.717Z,101221.13
2018-07-21T12:59:50.823Z,101236.99
2018-07-21T13:02:20.217Z,101226.16
2018-07-21T13:04:49.286Z,101228.27
2018-07-21T13:07:18.396Z,101243.30
2018-07-21T13:09:47.495Z,101234.19
2018-07-21T13:12:16.804Z,101232.47
2018-07-21T13:14:45.900Z,101230.62
2018-07-21T13:17:14.967Z,101222.36
2018-07-21T13:19:44.135Z,101235.80
2018-07-21T13:22:13.376Z,101240.95
2018-07-21T13:24:42.777Z,101239.97
2018-07-21T13:27:11.874Z,101233.95
2018-07-21T13:29:40.963Z,101243.43
2018-07-21T13:32:10.060Z,101235.80
2018-07-21T13:34:39.131Z,101221.40
2018-07-21T13:37:08.287Z,101226.91
2018-07-21T13:39:37.560Z,101241.32
2018-07-21T13:42:06.859Z,101239.11
2018-07-21T13:44:35.944Z,101237.16
2018-07-21T13:47:05.041Z,101244.78
2018-07-21T13:49:34.101Z,101239.37
2018-07-21T13:52:03.172Z,101233.85
2018-07-21T13:54:32.390Z,101238.41
2018-07-21T13:57:01.465Z,101244.78
2018-07-21T13:59:30.625Z,101242.08
2018-07-21T14:01:59.695Z,101238.41
2018-07-21T14:04:28.782Z,101251.56
2018-07-21T14:06:57.870Z,101238.28
2018-07-21T14:09:26.947Z,101238.28
2018-07-21T14:11:56.141Z,101251.46
2018-07-21T14:14:25.220Z,101255.03
2018-07-21T14:16:54.363Z,101247.89
2018-07-21T14:19:23.579Z,101253.31
2018-07-21T14:21:53.266Z,101256.87
2018-07-21T14:24:23.915Z,101249.12
2018-07-21T14:26:53.037Z,101249.61
2018-07-21T14:29:22.259Z,101246.14
2018-07-21T14:31:51.334Z,101254.53
2018-07-21T14:34:20.426Z,101259.48
2018-07-21T14:36:49.520Z,101260.55
2018-07-21T14:39:18.617Z,101260.55
2018-07-21T14:41:49.186Z,101265.50
2018-07-21T14:44:18.455Z,101255.03
2018-07-21T14:46:47.593Z,101263.05
2018-07-21T14:49:16.747Z,101264.02
2018-07-21T14:51:45.838Z,101265.00
2018-07-21T14:54:14.927Z,101258.23
2018-07-21T14:56:44.033Z,101262.30
2018-07-21T14:59:13.107Z,101261.80
2018-07-21T15:01:42.227Z,101264.14
2018-07-21T15:04:11.537Z,101269.44
2018-07-21T15:06:40.667Z,101263.16
2018-07-21T15:09:11.019Z,101264.18
2018-07-21T15:11:40.151Z,101266.16
2018-07-21T15:14:09.223Z,101277.76
2018-07-21T15:16:38.643Z,101273.46
2018-07-21T15:19:08.457Z,101276.67
2018-07-21T15:21:37.537Z,101275.70
2018-07-21T15:24:06.961Z,101270.16
2018-07-21T15:26:37.009Z,101274.62
2018-07-21T15:29:06.089Z,101267.70
2018-07-21T15:31:35.169Z,101268.96
2018-07-21T15:34:04.235Z,101272.62
2018-07-21T15:36:33.327Z,101269.22
2018-07-21T15:39:03.320Z,101270.84
2018-07-21T15:41:32.440Z,101285.25
2018-07-21T15:44:01.724Z,101274.41
2018-07-21T15:46:30.900Z,101274.67
2018-07-21T15:49:00.053Z,101274.81
2018-07-21T15:51:29.161Z,101286.38
2018-07-21T15:53:58.247Z,101280.48
2018-07-21T15:56:27.352Z,101276.42
2018-07-21T15:58:56.453Z,101270.02
2018-07-21T16:01:25.597Z,101272.22
2018-07-21T16:03:54.896Z,101278.04
2018-07-21T16:06:24.016Z,101269.41
2018-07-21T16:08:53.157Z,101281.11
2018-07-21T16:11:22.211Z,101277.05
2018-07-21T16:13:51.321Z,101283.33
2018-07-21T16:16:20.419Z,101285.44
2018-07-21T16:18:49.539Z,101282.83
2018-07-21T16:21:18.715Z,101285.94
2018-07-21T16:23:47.817Z,101288.16
2018-07-21T16:26:22.437Z,101278.66
2018-07-21T16:28:51.521Z,101288.65
2018-07-21T16:31:20.777Z,101287.16
2018-07-21T16:33:49.939Z,101278.17
2018-07-21T16:36:19.536Z,101277.57
2018-07-21T16:38:48.615Z,101281.27
2018-07-21T16:41:18.262Z,101281.75
2018-07-21T16:43:47.341Z,101287.43
2018-07-21T16:46:16.453Z,101284.14
2018-07-21T16:48:46.839Z,101292.62
2018-07-21T16:51:16.033Z,101288.45
2018-07-21T16:53:45.235Z,101279.09
2018-07-21T16:56:14.337Z,101279.83
2018-07-21T16:58:43.427Z,101284.27
2018-07-21T17:01:12.505Z,101293.16
2018-07-21T17:03:41.570Z,101276.78
2018-07-21T17:06:10.635Z,101283.42
2018-07-21T17:08:39.751Z,101276.69
2018-07-21T17:11:08.934Z,101278.47
2018-07-21T17:13:38.007Z,101275.86
2018-07-21T17:16:07.079Z,101277.79
2018-07-21T17:18:36.185Z,101272.54
2018-07-21T17:21:05.512Z,101273.70
2018-07-21T17:23:34.607Z,101280.70
2018-07-21T17:26:03.865Z,101274.48
2018-07-21T17:28:33.085Z,101276.63
2018-07-21T17:31:02.153Z,101273.94
2018-07-21T17:33:31.287Z,101275.03
2018-07-21T17:36:00.456Z,101280.07
2018-07-21T17:38:30.373Z,101271.64
2018-07-21T17:40:59.825Z,101272.18
2018-07-21T17:43:28.975Z,101277.27
2018-07-21T17:45:58.119Z,101280.52
2018-07-21T17:48:27.355Z,101281.06
2018-07-21T17:50:56.464Z,101272.77
2018-07-21T17:53:25.515Z,101283.95
2018-07-21T17:58:30.132Z,101285.84
2018-07-21T18:00:59.637Z,101291.47
2018-07-21T18:03:28.767Z,101290.36
2018-07-21T18:05:57.868Z,101286.67
2018-07-21T18:08:26.977Z,101292.02
2018-07-21T18:10:56.103Z,101297.77
2018-07-21T18:13:25.221Z,101297.59
2018-07-21T18:15:54.521Z,101295.89
2018-07-21T18:18:23.755Z,101301.84
2018-07-21T18:20:52.937Z,101302.64
2018-07-21T18:23:22.032Z,101308.16
2018-07-21T18:25:51.225Z,101307.05
2018-07-21T18:28:20.323Z,101311.54
2018-07-21T18:30:49.432Z,101310.72
2018-07-21T18:33:19.438Z,101312.72
2018-07-21T18:35:48.520Z,101312.13
2018-07-21T18:38:17.599Z,101322.83
2018-07-21T18:40:46.699Z,101319.67
2018-07-21T18:43:16.163Z,101319.39
2018-07-21T18:45:45.314Z,101322.19
2018-07-21T18:48:14.461Z,101325.39
2018-07-21T18:50:43.542Z,101320.78
2018-07-21T18:53:12.543Z,101322.70
2018-07-21T18:55:41.709Z,101330.64
2018-07-21T18:58:10.893Z,101336.04
2018-07-21T19:00:39.993Z,101332.07
2018-07-21T19:03:09.754Z,101331.78
2018-07-21T19:05:38.913Z,101337.95
2018-07-21T19:08:08.613Z,101335.33
2018-07-21T19:10:37.703Z,101335.70
2018-07-21T19:13:06.912Z,101339.06
2018-07-21T19:15:41.316Z,101340.80
2018-07-21T19:18:10.929Z,101341.87
2018-07-21T19:20:45.294Z,101339.84
2018-07-21T19:23:14.419Z,101338.53
2018-07-21T19:25:49.050Z,101341.20
2018-07-21T19:28:18.179Z,101349.27
2018-07-21T19:30:47.832Z,101349.29
2018-07-21T19:33:17.247Z,101351.20
2018-07-21T19:35:46.696Z,101351.20
2018-07-21T19:38:15.816Z,101352.77
2018-07-21T19:40:44.932Z,101356.80
2018-07-21T19:43:14.296Z,101361.84
2018-07-21T19:45:43.565Z,101365.66
2018-07-21T19:48:12.821Z,101367.44
2018-07-21T19:50:41.924Z,101363.41
2018-07-21T19:53:11.028Z,101369.22
2018-07-21T19:55:40.123Z,101378.84
2018-07-21T19:58:09.883Z,101379.63
2018-07-21T20:00:39.218Z,101384.45
2018-07-21T20:03:08.532Z,101379.42
2018-07-21T20:05:37.641Z,101384.05
2018-07-21T20:08:06.997Z,101383.59
2018-07-21T20:10:36.273Z,101385.53
2018-07-21T20:13:05.369Z,101389.09
2018-07-21T20:15:34.638Z,101380.98
2018-07-21T20:18:03.794Z,101385.81
2018-07-21T20:20:32.902Z,101385.41
2018-07-21T20:23:02.064Z,101389.30
2018-07-21T20:25:31.202Z,101389.86
2018-07-21T20:28:01.335Z,101398.55
2018-07-21T20:30:30.497Z,101398.83
2018-07-21T20:32:59.915Z,101401.73
2018-07-21T20:35:29.028Z,101407.43
2018-07-21T20:37:58.170Z,101400.39
2018-07-21T20:40:27.464Z,101403.75
2018-07-21T20:42:56.544Z,101406.16
2018-07-21T20:45:25.641Z,101403.09
2018-07-21T20:47:55.065Z,101396.50
2018-07-21T20:50:24.169Z,101402.31
2018-07-21T20:52:53.258Z,101403.66
2018-07-21T20:55:22.345Z,101405.67
2018-07-21T20:57:51.649Z,101410.50
2018-07-21T21:00:20.822Z,101408.09
2018-07-21T21:02:50.046Z,101410.30
2018-07-21T21:05:19.168Z,101405.09
2018-07-21T21:07:48.252Z,101410.22
2018-07-21T21:10:17.485Z,101409.27
2018-07-21T21:12:46.639Z,101411.48
2018-07-21T21:15:15.844Z,101409.35
2018-07-21T21:17:44.929Z,101412.14
2018-07-21T21:20:14.076Z,101416.30
2018-07-21T21:22:43.323Z,101413.69
2018-07-21T21:25:12.548Z,101412.25
2018-07-21T21:27:41.919Z,101408.00
2018-07-21T21:30:11.513Z,101408.36
2018-07-21T21:32:40.957Z,101409.92
2018-07-21T21:35:10.186Z,101407.80
2018-07-21T21:37:39.788Z,101408.20
2018-07-21T21:40:08.938Z,101407.91
2018-07-21T21:42:38.026Z,101414.73
2018-07-21T21:45:07.335Z,101412.15
2018-07-21T21:47:36.446Z,101414.35
2018-07-21T21:50:05.522Z,101414.25
2018-07-21T21:52:34.600Z,101410.23
2018-07-21T21:55:03.838Z,101406.31
2018-07-21T21:57:32.904Z,101411.99
2018-07-21T22:00:02.003Z,101406.59
2018-07-21T22:02:31.096Z,101409.38
2018-07-21T22:05:00.170Z,101408.16
2018-07-21T22:07:29.257Z,101410.77
2018-07-21T22:09:58.409Z,101412.20
2018-07-21T22:12:27.520Z,101405.23
2018-07-21T22:14:56.624Z,101411.99
2018-07-21T22:17:25.888Z,101412.32
2018-07-21T22:19:54.980Z,101412.37
2018-07-21T22:22:24.196Z,101408.22
2018-07-21T22:24:53.308Z,101408.22
2018-07-21T22:27:22.470Z,101405.03
2018-07-21T22:29:51.685Z,101403.69
2018-07-21T22:32:21.312Z,101413.33
2018-07-21T22:34:50.473Z,101416.37
2018-07-21T22:37:19.564Z,101416.56
2018-07-21T22:39:48.671Z,101417.92
2018-07-21T22:42:17.763Z,101419.00
2018-07-21T22:44:46.863Z,101415.52
2018-07-21T22:47:15.993Z,101413.40
2018-07-21T22:49:45.097Z,101413.20
2018-07-21T22:52:15.078Z,101414.84
2018-07-21T22:54:44.276Z,101411.48
2018-07-21T22:57:13.358Z,101413.98
2018-07-21T22:59:43.186Z,101418.81
2018-07-21T23:02:12.627Z,101415.05
2018-07-21T23:04:41.830Z,101418.03
2018-07-21T23:07:10.922Z,101415.13
2018-07-21T23:09:40.255Z,101416.86
2018-07-21T23:12:10.115Z,101416.20
2018-07-21T23:14:39.295Z,101412.42
2018-07-21T23:17:08.589Z,101411.45
2018-07-21T23:19:37.672Z,101414.44
2018-07-21T23:22:06.995Z,101418.41
2018-07-21T23:24:36.305Z,101418.73
2018-07-21T23:27:05.474Z,101411.84
2018-07-21T23:29:34.560Z,101419.38
2018-07-21T23:32:03.696Z,101413.03
2018-07-21T23:34:32.788Z,101414.66
2018-07-21T23:37:01.879Z,101415.44
2018-07-21T23:39:31.094Z,101415.81
2018-07-21T23:42:00.316Z,101413.02
2018-07-21T23:44:29.400Z,101418.80
2018-07-21T23:46:58.493Z,101416.01
2018-07-21T23:49:27.628Z,101414.53
2018-07-21T23:51:56.751Z,101412.70
2018-07-21T23:54:25.817Z,101410.77
2018-07-21T23:56:55.044Z,101412.40
2018-07-21T23:59:24.119Z,101408.34
